Portada
METAR-TAF:

METAR-TAF

Aeroports :

Loreto, Mèxic

latitud: 26-01N, longitud: 111-21W, altitud: 15 m

Observació

L'informe es va fer fa 8 hores i 51 minuts, a les 00:40 UTC
Vent 20 kt del Oest/Nord-Oest
Temperatura 27°C
Humitat 34%
Pressió 1006 hPa
Visibilitat: 12.9 km
Cel clar

METAR: MMLT 230040Z 30020KT 8SM SKC 27/10 A2970 RMK HZY

Hora: 03:31 (09:31 UTC)

Pronòstic

L'informe es va fer fa 4 hores i 31 minuts, a les 05:00 UTC
Pronòstic vàlid del 23 a les 06 UTC al 24 a les 06 UTC
Vent 8 kt del Oest/Nord-Oest
Visibilitat: 10 km
Cel clar
A partir de les 23 a les 1800 UTC
Vent 12 kt del Nord/Nord-Est
Visibilitat: 10 km
Cel clar
A partir de les 24 a les 0300 UTC
Vent 8 kt del Nord/Nord-Est
Visibilitat: 10 km
Cel clar

TAF: MMLT 230500Z 2306/2406 30008KT P6SM SKC FM231800 03012KT P6SM SKC FM240300 03008KT P6SM SKC

Observacions i pronòstics meteorològics de més de 4000 aeroports (METAR i TAF).

Les estacions disponibles són els punts grocs i vermells al mapa.

Posi el ratolí al punt desitjat per veure el nom de l'estació.

Feu clic per veure les observacions i els pronòstics meteorològics.

Per canviar el mapa: feu clic els botons verds amb una creu de color negre per apropar; al botó verd amb un guió per allunyar la imatge; o en les fletxes verdes per a mapes adjacents.


METAR-TAF: